Time;durP1;ratioP1;P1;durP2;ratioP2;P2;SDS_P1;SDS_P2;PMS_P1;PMS_P2;Temp;Humidity;BMP_temperature;BMP_pressure;BME280_temperature;BME280_humidity;BME280_pressure;Samples;Min_cycle;Max_cycle;Signal;HPM_P1;HPM_P2
2022/09/28 00:00:10;;;;;;;13.82;6.28;;;;;;;;;;4939971;28;20056;-69
2022/09/28 00:02:36;;;;;;;11.93;6.20;;;;;;;;;;4937934;28;20086;-69
2022/09/28 00:05:02;;;;;;;12.27;6.38;;;;;;;;;;4956906;28;20054;-69
2022/09/28 00:07:28;;;;;;;14.45;7.38;;;;;;;;;;4967035;28;20058;-69
2022/09/28 00:09:54;;;;;;;10.00;6.95;;;;;;;;;;4976979;28;20145;-69
2022/09/28 00:12:21;;;;;;;11.52;7.93;;;;;;;;;;4978936;28;20045;-69
2022/09/28 00:14:47;;;;;;;9.15;6.55;;;;;;;;;;4978154;28;20137;-69
2022/09/28 00:17:15;;;;;;;16.77;7.53;;;;;;;;;;4979543;28;20050;-69
2022/09/28 00:19:43;;;;;;;11.60;7.07;;;;;;;;;;4981265;28;20216;-68
2022/09/28 00:22:09;;;;;;;13.02;7.32;;;;;;;;;;4979021;28;20850;-69
2022/09/28 00:24:36;;;;;;;11.00;7.50;;;;;;;;;;4981356;28;20378;-69
2022/09/28 00:27:03;;;;;;;13.38;7.00;;;;;;;;;;4978521;28;20402;-69
2022/09/28 00:29:31;;;;;;;14.73;7.63;;;;;;;;;;4975190;28;20073;-69
2022/09/28 00:32:01;;;;;;;13.82;8.75;;;;;;;;;;4977883;28;20043;-69
2022/09/28 00:34:30;;;;;;;12.18;8.60;;;;;;;;;;4978740;28;20050;-69
2022/09/28 00:36:56;;;;;;;17.52;9.02;;;;;;;;;;4995250;28;20742;-69
2022/09/28 00:39:22;;;;;;;14.38;8.75;;;;;;;;;;4979043;28;20092;-69
2022/09/28 00:41:48;;;;;;;13.05;8.48;;;;;;;;;;4980677;28;20053;-69
2022/09/28 00:44:22;;;;;;;14.95;8.70;;;;;;;;;;4977188;28;20109;-69
2022/09/28 00:46:49;;;;;;;15.98;8.35;;;;;;;;;;4979914;28;20054;-69
2022/09/28 00:49:17;;;;;;;12.85;9.00;;;;;;;;;;4979661;28;21113;-69
2022/09/28 00:51:44;;;;;;;14.20;9.35;;;;;;;;;;4974540;28;20140;-69
2022/09/28 00:54:11;;;;;;;12.98;8.70;;;;;;;;;;4976876;28;20524;-68
2022/09/28 00:56:38;;;;;;;14.70;8.98;;;;;;;;;;4976615;28;20058;-69
2022/09/28 00:59:04;;;;;;;18.25;9.18;;;;;;;;;;4960055;28;20177;-69
2022/09/28 01:01:30;;;;;;;16.13;8.95;;;;;;;;;;4979023;28;20046;-69
2022/09/28 01:03:58;;;;;;;16.20;9.20;;;;;;;;;;4976637;28;20508;-69
2022/09/28 01:06:26;;;;;;;13.45;9.48;;;;;;;;;;4978801;28;20038;-68
2022/09/28 01:08:55;;;;;;;16.38;9.75;;;;;;;;;;4976112;28;20742;-69
2022/09/28 01:11:21;;;;;;;15.80;9.43;;;;;;;;;;4978383;28;20627;-69
2022/09/28 01:13:49;;;;;;;15.98;10.02;;;;;;;;;;4980050;28;20054;-69
2022/09/28 01:16:24;;;;;;;15.07;10.02;;;;;;;;;;4978896;28;20050;-69
2022/09/28 01:18:58;;;;;;;17.23;10.40;;;;;;;;;;4978745;28;20046;-69
2022/09/28 01:21:24;;;;;;;14.15;9.68;;;;;;;;;;4975720;28;20061;-69
2022/09/28 01:24:02;;;;;;;13.57;9.57;;;;;;;;;;4977964;28;20411;-69
2022/09/28 01:26:35;;;;;;;15.70;9.35;;;;;;;;;;4980732;28;20149;-69
2022/09/28 01:29:13;;;;;;;14.95;9.18;;;;;;;;;;4981566;28;20145;-69
2022/09/28 01:31:41;;;;;;;14.60;9.52;;;;;;;;;;4979549;28;20398;-69
2022/09/28 01:34:11;;;;;;;16.38;10.15;;;;;;;;;;4976794;28;20039;-69
2022/09/28 01:36:41;;;;;;;15.55;11.07;;;;;;;;;;4976537;28;20050;-68
2022/09/28 01:39:09;;;;;;;18.40;11.23;;;;;;;;;;4977793;28;20034;-69
2022/09/28 01:41:39;;;;;;;18.50;11.20;;;;;;;;;;4980038;28;20133;-69
2022/09/28 01:44:07;;;;;;;18.88;11.25;;;;;;;;;;4977474;28;20058;-69
2022/09/28 01:46:40;;;;;;;16.50;10.35;;;;;;;;;;4971471;28;20140;-69
2022/09/28 01:49:12;;;;;;;20.45;11.02;;;;;;;;;;4977186;28;20405;-69
2022/09/28 01:51:41;;;;;;;17.98;9.40;;;;;;;;;;4977846;28;20441;-69
2022/09/28 01:54:11;;;;;;;15.25;10.40;;;;;;;;;;4977278;28;20129;-69
2022/09/28 01:56:42;;;;;;;16.75;10.45;;;;;;;;;;4978595;28;20065;-69
2022/09/28 01:59:12;;;;;;;16.95;10.50;;;;;;;;;;4976229;28;20092;-69
2022/09/28 02:01:41;;;;;;;20.08;10.98;;;;;;;;;;4979289;28;20378;-69
2022/09/28 02:04:11;;;;;;;19.75;10.60;;;;;;;;;;4977228;28;20133;-69
2022/09/28 02:06:40;;;;;;;19.88;11.85;;;;;;;;;;4976699;28;20042;-69
2022/09/28 02:09:11;;;;;;;15.68;10.57;;;;;;;;;;4939300;28;20490;-69
2022/09/28 02:11:39;;;;;;;20.25;12.10;;;;;;;;;;4942608;28;20079;-69
2022/09/28 02:14:07;;;;;;;19.55;11.65;;;;;;;;;;4940300;28;20047;-69
2022/09/28 02:16:39;;;;;;;19.08;11.00;;;;;;;;;;4956093;28;20051;-69
2022/09/28 02:19:07;;;;;;;26.27;11.75;;;;;;;;;;4960058;28;20078;-69
2022/09/28 02:21:41;;;;;;;19.38;11.73;;;;;;;;;;4939937;28;20500;-69
2022/09/28 02:24:07;;;;;;;;;;;;;;;;;;4954899;28;20102;-69
2022/09/28 02:26:36;;;;;;;16.63;9.93;;;;;;;;;;4942445;28;19930;-69
2022/09/28 02:29:02;;;;;;;19.48;10.93;;;;;;;;;;4958791;28;20043;-69
2022/09/28 02:31:28;;;;;;;24.70;12.95;;;;;;;;;;4939581;28;20402;-69
2022/09/28 02:33:56;;;;;;;24.73;12.70;;;;;;;;;;4939633;28;20058;-69
2022/09/28 02:36:24;;;;;;;16.88;10.48;;;;;;;;;;4958395;28;20066;-69
2022/09/28 02:38:50;;;;;;;15.98;10.63;;;;;;;;;;4954666;28;20097;-69
2022/09/28 02:41:35;;;;;;;17.70;10.88;;;;;;;;;;4942802;28;20087;-69
2022/09/28 02:44:05;;;;;;;17.42;9.85;;;;;;;;;;4939550;28;20058;-68
2022/09/28 02:46:41;;;;;;;15.95;8.75;;;;;;;;;;4937699;28;20047;-69
2022/09/28 02:49:10;;;;;;;12.20;8.43;;;;;;;;;;4954869;28;20034;-68
2022/09/28 02:51:40;;;;;;;12.88;7.63;;;;;;;;;;4936945;28;20869;-69
2022/09/28 02:54:07;;;;;;;10.75;6.85;;;;;;;;;;4940844;28;20070;-68
2022/09/28 02:56:40;;;;;;;10.13;7.10;;;;;;;;;;4960932;28;20051;-68
2022/09/28 02:59:12;;;;;;;11.45;7.88;;;;;;;;;;4942132;28;20474;-69
2022/09/28 03:01:50;;;;;;;12.50;8.05;;;;;;;;;;4962121;28;20380;-68
2022/09/28 03:04:23;;;;;;;16.77;9.18;;;;;;;;;;4945435;28;20046;-68
2022/09/28 03:07:01;;;;;;;11.85;8.15;;;;;;;;;;4964475;28;20121;-69
2022/09/28 03:09:35;;;;;;;15.57;9.70;;;;;;;;;;4980167;28;20157;-68
2022/09/28 03:12:07;;;;;;;14.93;9.68;;;;;;;;;;4977338;28;20042;-68
2022/09/28 03:14:33;;;;;;;21.02;9.68;;;;;;;;;;4974550;28;20054;-68
2022/09/28 03:16:59;;;;;;;19.70;11.25;;;;;;;;;;4974677;28;20108;-68
2022/09/28 03:19:28;;;;;;;18.58;10.43;;;;;;;;;;4974999;28;20117;-68
2022/09/28 03:21:55;;;;;;;14.45;9.02;;;;;;;;;;4974112;28;20070;-68
2022/09/28 03:24:21;;;;;;;15.77;9.90;;;;;;;;;;4975631;28;20038;-68
2022/09/28 03:26:47;;;;;;;14.77;9.30;;;;;;;;;;4975432;28;20141;-68
2022/09/28 03:29:13;;;;;;;16.70;10.07;;;;;;;;;;4977577;28;20134;-68
2022/09/28 03:31:39;;;;;;;18.65;10.90;;;;;;;;;;4976841;28;20108;-69
2022/09/28 03:34:06;;;;;;;17.70;10.80;;;;;;;;;;4976014;28;20686;-68
2022/09/28 03:36:32;;;;;;;17.67;9.90;;;;;;;;;;4976548;28;20054;-68
2022/09/28 03:38:58;;;;;;;16.88;10.27;;;;;;;;;;4973848;28;20344;-69
2022/09/28 03:41:26;;;;;;;16.20;9.73;;;;;;;;;;4959068;28;20146;-68
2022/09/28 03:43:53;;;;;;;18.48;11.35;;;;;;;;;;4974493;28;20042;-69
2022/09/28 03:46:19;;;;;;;13.80;9.32;;;;;;;;;;4975908;28;20073;-69
2022/09/28 03:48:45;;;;;;;16.10;9.20;;;;;;;;;;4978327;28;20061;-68
2022/09/28 03:51:12;;;;;;;16.85;10.20;;;;;;;;;;4981050;28;20050;-69
2022/09/28 03:53:38;;;;;;;22.15;9.60;;;;;;;;;;4980514;28;20042;-68
2022/09/28 03:56:06;;;;;;;16.08;10.75;;;;;;;;;;4977872;28;20374;-69
2022/09/28 03:58:32;;;;;;;18.48;10.02;;;;;;;;;;4979410;28;20096;-68
2022/09/28 04:01:04;;;;;;;17.02;9.48;;;;;;;;;;4979359;28;20050;-68
2022/09/28 04:03:31;;;;;;;16.00;9.70;;;;;;;;;;4994337;28;20073;-69
2022/09/28 04:05:57;;;;;;;14.95;9.38;;;;;;;;;;4979316;28;20054;-69
2022/09/28 04:08:23;;;;;;;16.77;10.63;;;;;;;;;;4983311;28;20089;-69
2022/09/28 04:10:49;;;;;;;16.67;10.77;;;;;;;;;;4982664;28;20057;-68
2022/09/28 04:13:15;;;;;;;17.80;10.90;;;;;;;;;;4984062;28;20073;-68
2022/09/28 04:15:42;;;;;;;19.00;11.43;;;;;;;;;;4983878;28;20449;-69
2022/09/28 04:18:10;;;;;;;18.77;10.15;;;;;;;;;;4983764;28;20492;-69
2022/09/28 04:20:36;;;;;;;15.68;10.15;;;;;;;;;;4981437;28;20129;-68
2022/09/28 04:23:02;;;;;;;17.13;10.27;;;;;;;;;;4979224;28;20462;-68
2022/09/28 04:25:28;;;;;;;18.10;10.68;;;;;;;;;;4981546;28;21095;-69
2022/09/28 04:30:39;;;;;;;16.05;9.55;;;;;;;;;;4977373;28;20375;-68
2022/09/28 04:33:05;;;;;;;15.32;9.32;;;;;;;;;;4980242;28;20914;-68
2022/09/28 04:35:31;;;;;;;14.05;10.02;;;;;;;;;;4972885;28;20061;-70
2022/09/28 04:37:57;;;;;;;19.27;9.40;;;;;;;;;;4977079;28;20104;-69
2022/09/28 04:40:24;;;;;;;15.00;9.63;;;;;;;;;;4981223;28;20053;-69
2022/09/28 04:42:54;;;;;;;17.73;10.90;;;;;;;;;;4981557;28;20124;-68
2022/09/28 04:45:20;;;;;;;17.75;9.85;;;;;;;;;;4978630;28;20447;-69
2022/09/28 04:47:46;;;;;;;15.32;9.23;;;;;;;;;;4981292;28;20402;-68
2022/09/28 04:50:12;;;;;;;14.30;8.73;;;;;;;;;;4982558;28;20371;-68
2022/09/28 04:52:38;;;;;;;14.52;8.02;;;;;;;;;;4980349;28;20523;-68
2022/09/28 04:55:05;;;;;;;13.10;7.65;;;;;;;;;;4982825;28;20643;-68
2022/09/28 04:57:34;;;;;;;12.95;7.30;;;;;;;;;;4984284;28;20034;-67
2022/09/28 05:00:00;;;;;;;12.45;6.60;;;;;;;;;;4981270;28;20141;-68
2022/09/28 05:02:28;;;;;;;10.95;6.30;;;;;;;;;;4984122;28;20058;-68
2022/09/28 05:04:55;;;;;;;11.07;6.55;;;;;;;;;;4980265;28;20465;-69
2022/09/28 05:07:21;;;;;;;9.38;6.25;;;;;;;;;;4983581;28;20536;-68
2022/09/28 05:09:47;;;;;;;9.20;5.88;;;;;;;;;;4979787;28;21194;-68
2022/09/28 05:12:14;;;;;;;8.45;6.00;;;;;;;;;;4980779;28;20042;-67
2022/09/28 05:14:40;;;;;;;10.48;5.57;;;;;;;;;;4982342;28;20050;-69
2022/09/28 05:17:07;;;;;;;11.20;6.38;;;;;;;;;;4980286;28;20074;-68
2022/09/28 05:19:34;;;;;;;11.02;6.13;;;;;;;;;;4982818;28;20042;-68
2022/09/28 05:22:03;;;;;;;11.70;5.97;;;;;;;;;;4982110;28;20050;-69
2022/09/28 05:24:30;;;;;;;12.65;5.93;;;;;;;;;;4985486;28;20051;-68
2022/09/28 05:26:57;;;;;;;6.93;4.43;;;;;;;;;;4989217;28;20157;-67
2022/09/28 05:29:23;;;;;;;10.18;5.18;;;;;;;;;;4992804;28;20046;-69
2022/09/28 05:31:49;;;;;;;9.38;5.20;;;;;;;;;;4990433;28;20121;-67
2022/09/28 05:34:15;;;;;;;9.63;5.25;;;;;;;;;;4988531;28;20425;-68
2022/09/28 05:36:41;;;;;;;9.35;4.97;;;;;;;;;;4989205;28;20051;-68
2022/09/28 05:39:08;;;;;;;9.43;6.15;;;;;;;;;;4991721;28;20060;-67
2022/09/28 05:41:35;;;;;;;10.90;5.82;;;;;;;;;;4993753;28;20389;-68
2022/09/28 05:44:01;;;;;;;9.10;5.13;;;;;;;;;;4994520;28;20098;-68
2022/09/28 05:46:27;;;;;;;9.27;4.78;;;;;;;;;;4991677;28;20125;-68
2022/09/28 05:48:53;;;;;;;10.20;5.07;;;;;;;;;;4991488;28;20049;-68
2022/09/28 05:51:20;;;;;;;10.55;6.32;;;;;;;;;;4989694;28;20108;-68
2022/09/28 05:53:46;;;;;;;10.38;5.68;;;;;;;;;;4990693;28;20057;-68
2022/09/28 05:56:12;;;;;;;8.88;5.35;;;;;;;;;;4990341;28;20046;-68
2022/09/28 05:58:38;;;;;;;7.85;4.85;;;;;;;;;;4989951;28;20117;-68
2022/09/28 06:01:04;;;;;;;13.57;5.85;;;;;;;;;;4989624;28;20082;-67
2022/09/28 06:03:30;;;;;;;9.50;5.20;;;;;;;;;;4990433;28;20481;-68
2022/09/28 06:06:00;;;;;;;12.52;5.43;;;;;;;;;;4989973;28;20046;-67
2022/09/28 06:08:26;;;;;;;10.38;5.68;;;;;;;;;;4988485;28;20081;-68
2022/09/28 06:10:52;;;;;;;9.20;4.72;;;;;;;;;;4989461;28;20114;-68
2022/09/28 06:13:19;;;;;;;28.38;5.88;;;;;;;;;;4991255;28;20047;-67
2022/09/28 06:15:45;;;;;;;20.30;4.78;;;;;;;;;;4988142;28;20058;-67
2022/09/28 06:18:13;;;;;;;34.88;4.78;;;;;;;;;;4989990;28;20084;-67
2022/09/28 06:20:40;;;;;;;32.38;4.72;;;;;;;;;;4989291;28;20058;-67
2022/09/28 06:23:07;;;;;;;16.30;4.07;;;;;;;;;;4988171;28;20568;-67
2022/09/28 06:25:33;;;;;;;21.38;3.90;;;;;;;;;;4988940;28;20042;-67
2022/09/28 06:28:00;;;;;;;11.95;3.53;;;;;;;;;;4990169;28;20132;-67
2022/09/28 06:30:27;;;;;;;10.13;3.83;;;;;;;;;;4988538;28;20042;-67
2022/09/28 06:32:55;;;;;;;7.03;3.40;;;;;;;;;;4989179;28;20571;-67
2022/09/28 06:35:23;;;;;;;6.93;4.10;;;;;;;;;;4990389;28;20038;-67
2022/09/28 06:37:49;;;;;;;7.43;4.43;;;;;;;;;;4989921;28;20058;-68
2022/09/28 06:40:16;;;;;;;7.82;4.40;;;;;;;;;;4988985;28;21520;-68
2022/09/28 06:42:42;;;;;;;7.40;4.40;;;;;;;;;;4988088;28;20051;-68
2022/09/28 06:45:09;;;;;;;7.03;4.70;;;;;;;;;;4989559;28;20077;-68
2022/09/28 06:47:36;;;;;;;9.60;5.50;;;;;;;;;;4988718;28;20042;-68
2022/09/28 06:50:03;;;;;;;10.13;5.22;;;;;;;;;;4990002;28;20046;-67
2022/09/28 06:52:29;;;;;;;8.27;5.38;;;;;;;;;;4989977;28;20046;-66
2022/09/28 06:54:55;;;;;;;8.80;5.53;;;;;;;;;;4989938;28;20489;-66
2022/09/28 06:57:21;;;;;;;11.93;6.95;;;;;;;;;;4987744;28;20512;-66
2022/09/28 06:59:48;;;;;;;13.07;6.50;;;;;;;;;;4989992;28;20042;-67
2022/09/28 07:02:30;;;;;;;10.02;5.65;;;;;;;;;;4989095;28;20070;-66
2022/09/28 07:04:56;;;;;;;10.00;6.22;;;;;;;;;;4987639;28;20121;-66
2022/09/28 07:07:22;;;;;;;9.95;5.50;;;;;;;;;;4988002;28;20141;-66
2022/09/28 07:09:52;;;;;;;8.40;5.55;;;;;;;;;;4988814;28;20050;-67
2022/09/28 07:12:18;;;;;;;14.32;7.20;;;;;;;;;;4989081;28;20097;-66
2022/09/28 07:14:45;;;;;;;13.93;7.38;;;;;;;;;;4989754;28;20057;-67
2022/09/28 07:17:11;;;;;;;9.85;6.72;;;;;;;;;;4988749;28;20056;-66
2022/09/28 07:19:37;;;;;;;12.55;8.27;;;;;;;;;;4989530;28;20137;-66
2022/09/28 07:22:03;;;;;;;11.20;7.22;;;;;;;;;;4988978;28;20046;-66
2022/09/28 07:24:29;;;;;;;12.85;6.88;;;;;;;;;;4991365;28;20600;-66
2022/09/28 07:26:55;;;;;;;11.00;7.43;;;;;;;;;;4991084;28;20228;-66
2022/09/28 07:29:21;;;;;;;10.55;6.40;;;;;;;;;;4991596;28;20069;-66
2022/09/28 07:31:48;;;;;;;9.85;6.30;;;;;;;;;;4991800;28;20386;-66
2022/09/28 07:34:16;;;;;;;14.25;6.82;;;;;;;;;;4989987;28;20053;-66
2022/09/28 07:36:42;;;;;;;8.20;5.20;;;;;;;;;;4990494;28;20057;-66
2022/09/28 07:39:08;;;;;;;8.75;5.38;;;;;;;;;;4990288;28;20125;-66
2022/09/28 07:41:35;;;;;;;8.75;5.28;;;;;;;;;;4989489;28;20046;-66
2022/09/28 07:44:04;;;;;;;8.75;5.43;;;;;;;;;;4991445;28;20544;-66
2022/09/28 07:46:32;;;;;;;8.23;5.35;;;;;;;;;;4989461;28;20093;-66
2022/09/28 07:48:59;;;;;;;8.30;5.35;;;;;;;;;;4990375;28;20046;-66
2022/09/28 07:51:25;;;;;;;7.45;5.15;;;;;;;;;;4991699;28;20049;-66
2022/09/28 07:53:53;;;;;;;13.88;5.47;;;;;;;;;;4990710;28;20046;-66
2022/09/28 07:56:19;;;;;;;7.68;4.70;;;;;;;;;;4991302;28;20414;-66
2022/09/28 07:58:46;;;;;;;13.65;5.13;;;;;;;;;;4990231;28;20046;-66
2022/09/28 08:01:14;;;;;;;8.73;4.18;;;;;;;;;;4990697;28;20486;-66
2022/09/28 08:03:44;;;;;;;12.23;3.88;;;;;;;;;;4990069;28;20046;-66
2022/09/28 08:06:11;;;;;;;10.93;4.82;;;;;;;;;;4991315;28;20054;-67
2022/09/28 08:08:43;;;;;;;11.32;3.25;;;;;;;;;;4990317;28;20050;-67
2022/09/28 08:11:13;;;;;;;5.22;2.85;;;;;;;;;;4991378;28;20198;-67
2022/09/28 08:13:40;;;;;;;7.97;3.90;;;;;;;;;;4991431;28;20062;-67
2022/09/28 08:16:07;;;;;;;6.60;2.90;;;;;;;;;;4990309;28;20046;-67
2022/09/28 08:18:34;;;;;;;12.02;3.55;;;;;;;;;;4991375;28;20112;-67
2022/09/28 08:23:45;;;;;;;7.32;3.45;;;;;;;;;;4989088;28;20486;-68
2022/09/28 08:26:12;;;;;;;5.53;2.08;;;;;;;;;;4989731;28;20057;-68
2022/09/28 08:28:38;;;;;;;7.78;2.50;;;;;;;;;;4976759;28;20057;-68
2022/09/28 08:31:06;;;;;;;6.50;3.15;;;;;;;;;;4988478;28;20129;-68
2022/09/28 08:33:33;;;;;;;7.47;2.97;;;;;;;;;;4993759;28;20469;-67
2022/09/28 08:36:00;;;;;;;8.55;2.58;;;;;;;;;;4993793;28;20133;-67
2022/09/28 08:38:27;;;;;;;7.30;3.17;;;;;;;;;;4996227;28;20061;-67
2022/09/28 08:41:03;;;;;;;7.30;2.50;;;;;;;;;;4994805;28;20049;-67
2022/09/28 08:43:31;;;;;;;8.50;2.53;;;;;;;;;;4993994;28;20421;-67
2022/09/28 08:45:58;;;;;;;4.20;2.20;;;;;;;;;;4994696;28;20397;-67
2022/09/28 08:48:47;;;;;;;6.95;1.90;;;;;;;;;;4994024;28;20075;-67
2022/09/28 08:51:42;;;;;;;8.40;2.25;;;;;;;;;;4995038;28;20046;-67
2022/09/28 08:54:12;;;;;;;8.32;1.45;;;;;;;;;;4989567;28;20509;-67
2022/09/28 08:56:42;;;;;;;4.07;1.10;;;;;;;;;;4986653;28;20159;-67
2022/09/28 08:59:12;;;;;;;3.63;0.80;;;;;;;;;;4987331;28;20050;-67
2022/09/28 09:01:40;;;;;;;4.07;0.93;;;;;;;;;;4994631;28;20046;-67
2022/09/28 09:04:06;;;;;;;4.75;1.20;;;;;;;;;;4990225;28;20087;-67
2022/09/28 09:06:59;;;;;;;3.05;1.05;;;;;;;;;;4989517;28;20414;-66
2022/09/28 09:09:32;;;;;;;2.80;0.98;;;;;;;;;;4982292;28;20045;-66
2022/09/28 09:12:10;;;;;;;2.47;0.80;;;;;;;;;;4982209;28;20038;-66
2022/09/28 09:14:43;;;;;;;4.20;0.82;;;;;;;;;;4987872;28;20133;-67
2022/09/28 09:17:17;;;;;;;3.63;0.82;;;;;;;;;;4990607;28;20050;-68
2022/09/28 09:20:09;;;;;;;6.38;0.90;;;;;;;;;;4989726;28;20042;-67
2022/09/28 09:22:36;;;;;;;4.93;1.00;;;;;;;;;;4991269;28;20042;-67
2022/09/28 09:25:05;;;;;;;3.45;0.50;;;;;;;;;;4990815;28;20050;-67
2022/09/28 09:27:37;;;;;;;5.65;0.90;;;;;;;;;;4991661;28;20118;-68
2022/09/28 09:30:06;;;;;;;5.57;0.95;;;;;;;;;;4989759;28;20057;-67
2022/09/28 09:32:34;;;;;;;2.10;0.43;;;;;;;;;;4989666;28;20058;-67
2022/09/28 09:35:21;;;;;;;2.00;0.60;;;;;;;;;;4990503;28;20489;-68
2022/09/28 09:37:50;;;;;;;4.30;0.50;;;;;;;;;;4988607;28;20121;-68
2022/09/28 09:40:33;;;;;;;2.45;0.50;;;;;;;;;;4990339;28;20124;-67
2022/09/28 09:43:04;;;;;;;3.10;0.60;;;;;;;;;;4989526;28;20129;-68
2022/09/28 09:45:37;;;;;;;1.42;0.40;;;;;;;;;;4990957;28;20042;-68
2022/09/28 09:48:09;;;;;;;2.65;0.60;;;;;;;;;;4988435;28;20136;-68
2022/09/28 09:50:38;;;;;;;5.57;0.60;;;;;;;;;;4990241;28;20050;-66
2022/09/28 09:53:12;;;;;;;1.90;0.40;;;;;;;;;;4989275;28;20057;-66
2022/09/28 09:55:39;;;;;;;;;;;;;;;;;;4989231;28;20133;-66
2022/09/28 09:58:16;;;;;;;2.25;0.60;;;;;;;;;;4989751;28;19972;-66
2022/09/28 10:00:44;;;;;;;1.65;0.40;;;;;;;;;;4990523;28;20507;-66
2022/09/28 10:03:19;;;;;;;3.10;0.60;;;;;;;;;;4989308;28;20053;-66
2022/09/28 10:05:46;;;;;;;2.95;0.57;;;;;;;;;;5002490;28;20042;-66
2022/09/28 10:08:15;;;;;;;2.50;0.40;;;;;;;;;;4974728;28;20654;-67
2022/09/28 10:10:49;;;;;;;2.53;0.60;;;;;;;;;;4952893;28;20039;-66
2022/09/28 10:13:16;;;;;;;3.67;0.52;;;;;;;;;;4969450;28;20490;-66
2022/09/28 10:15:42;;;;;;;2.53;0.60;;;;;;;;;;4969234;28;20098;-66
2022/09/28 10:18:11;;;;;;;4.65;0.65;;;;;;;;;;4970200;28;20130;-66
2022/09/28 10:20:39;;;;;;;4.85;2.00;;;;;;;;;;4952986;28;20486;-66
2022/09/28 10:23:06;;;;;;;2.30;0.70;;;;;;;;;;4969097;28;20402;-66
2022/09/28 10:25:33;;;;;;;3.22;0.43;;;;;;;;;;4969701;28;20506;-66
2022/09/28 10:28:00;;;;;;;5.38;0.70;;;;;;;;;;4970498;28;20419;-66
2022/09/28 10:30:27;;;;;;;2.47;0.60;;;;;;;;;;4968840;28;20039;-66
2022/09/28 10:32:58;;;;;;;2.60;0.52;;;;;;;;;;4969984;28;20126;-66
2022/09/28 10:35:26;;;;;;;2.80;0.80;;;;;;;;;;4968817;28;20043;-67
2022/09/28 10:37:55;;;;;;;2.08;0.80;;;;;;;;;;4950688;28;20050;-66
2022/09/28 10:40:43;;;;;;;4.20;1.05;;;;;;;;;;4950346;28;20042;-66
2022/09/28 10:43:25;;;;;;;5.40;0.90;;;;;;;;;;4967944;28;20408;-66
2022/09/28 10:46:00;;;;;;;4.13;0.70;;;;;;;;;;4953151;28;20490;-66
2022/09/28 10:48:27;;;;;;;3.20;0.70;;;;;;;;;;4969423;28;20038;-66
2022/09/28 10:51:04;;;;;;;3.00;0.45;;;;;;;;;;4968564;28;20042;-66
2022/09/28 10:53:30;;;;;;;5.32;0.82;;;;;;;;;;4969404;28;20109;-66
2022/09/28 10:55:59;;;;;;;5.70;0.68;;;;;;;;;;4966866;28;20042;-66
2022/09/28 10:58:27;;;;;;;2.58;0.77;;;;;;;;;;4967603;28;20052;-65
2022/09/28 11:00:59;;;;;;;1.70;0.40;;;;;;;;;;4951796;28;20039;-66
2022/09/28 11:03:27;;;;;;;1.88;0.32;;;;;;;;;;4951509;28;20046;-66
2022/09/28 11:05:54;;;;;;;4.40;0.50;;;;;;;;;;4951914;28;20109;-66
2022/09/28 11:08:24;;;;;;;2.67;0.80;;;;;;;;;;4980952;28;20054;-66
2022/09/28 11:11:01;;;;;;;3.35;0.80;;;;;;;;;;4988770;28;20046;-66
2022/09/28 11:13:27;;;;;;;4.68;1.13;;;;;;;;;;4988913;28;20062;-66
2022/09/28 11:15:53;;;;;;;2.00;0.50;;;;;;;;;;4989737;28;20397;-66
2022/09/28 11:18:25;;;;;;;5.43;0.80;;;;;;;;;;4988361;28;20061;-66
2022/09/28 11:20:51;;;;;;;3.05;0.60;;;;;;;;;;4989294;28;20378;-66
2022/09/28 11:23:17;;;;;;;5.53;0.75;;;;;;;;;;4988943;28;20049;-65
2022/09/28 11:25:54;;;;;;;3.55;0.50;;;;;;;;;;4984210;28;20454;-66
2022/09/28 11:28:22;;;;;;;3.95;0.52;;;;;;;;;;4982977;28;20050;-66
2022/09/28 11:30:51;;;;;;;1.52;0.40;;;;;;;;;;4988700;28;20050;-66
2022/09/28 11:33:19;;;;;;;1.52;0.40;;;;;;;;;;4986728;28;20429;-66
2022/09/28 11:36:01;;;;;;;2.42;0.60;;;;;;;;;;4989373;28;20050;-77
2022/09/28 11:38:32;;;;;;;1.92;0.70;;;;;;;;;;4985493;28;20050;-66
2022/09/28 11:41:03;;;;;;;0.75;0.40;;;;;;;;;;4989128;28;20046;-66
2022/09/28 11:43:44;;;;;;;2.10;0.47;;;;;;;;;;4990186;28;20038;-66
2022/09/28 11:46:18;;;;;;;1.13;0.40;;;;;;;;;;4985136;28;20058;-66
2022/09/28 11:48:49;;;;;;;2.30;0.30;;;;;;;;;;4987595;28;20072;-66
2022/09/28 11:51:17;;;;;;;1.60;0.38;;;;;;;;;;4989924;28;20129;-66
2022/09/28 11:53:50;;;;;;;1.40;0.32;;;;;;;;;;4988673;28;20057;-68
2022/09/28 11:56:23;;;;;;;2.20;0.30;;;;;;;;;;4986955;28;20043;-66
2022/09/28 11:58:51;;;;;;;2.97;0.40;;;;;;;;;;4989739;28;20516;-66
2022/09/28 12:01:18;;;;;;;3.03;0.47;;;;;;;;;;4987859;28;20130;-66
2022/09/28 12:03:50;;;;;;;1.88;0.40;;;;;;;;;;4988198;28;20530;-66
2022/09/28 12:06:19;;;;;;;1.80;0.37;;;;;;;;;;4985894;28;20411;-66
2022/09/28 12:08:50;;;;;;;1.25;0.40;;;;;;;;;;4970335;28;20298;-66
2022/09/28 12:11:21;;;;;;;1.92;0.50;;;;;;;;;;4952041;28;20054;-66
2022/09/28 12:13:49;;;;;;;3.95;0.40;;;;;;;;;;4969899;28;20065;-68
2022/09/28 12:16:19;;;;;;;2.47;0.65;;;;;;;;;;4952863;28;20126;-68
2022/09/28 12:18:49;;;;;;;2.35;0.30;;;;;;;;;;4951545;28;20590;-68
2022/09/28 12:21:26;;;;;;;0.82;0.20;;;;;;;;;;4970453;28;20046;-68
2022/09/28 12:23:54;;;;;;;2.28;0.50;;;;;;;;;;4951780;28;20089;-68
2022/09/28 12:26:28;;;;;;;4.00;0.40;;;;;;;;;;4969866;28;20125;-67
2022/09/28 12:28:57;;;;;;;1.13;0.20;;;;;;;;;;4950933;28;20465;-67
2022/09/28 12:31:27;;;;;;;1.85;0.40;;;;;;;;;;4968468;28;20125;-67
2022/09/28 12:33:53;;;;;;;1.92;0.60;;;;;;;;;;4951716;28;20058;-67
2022/09/28 12:36:29;;;;;;;2.22;0.40;;;;;;;;;;4966724;28;20098;-67
2022/09/28 12:39:14;;;;;;;3.47;0.50;;;;;;;;;;4968213;28;20122;-67
2022/09/28 12:41:46;;;;;;;2.92;0.70;;;;;;;;;;4970155;28;20058;-68
2022/09/28 12:44:13;;;;;;;2.38;0.60;;;;;;;;;;4970708;28;20046;-67
2022/09/28 12:46:48;;;;;;;2.67;0.68;;;;;;;;;;4970748;28;20070;-67
2022/09/28 12:49:21;;;;;;;2.08;0.60;;;;;;;;;;4968908;28;20046;-76
2022/09/28 12:51:52;;;;;;;6.00;0.40;;;;;;;;;;4969428;28;20463;-65
2022/09/28 12:54:29;;;;;;;5.07;0.57;;;;;;;;;;4968665;28;20043;-65
2022/09/28 12:57:01;;;;;;;1.13;0.45;;;;;;;;;;4950989;28;20062;-65
2022/09/28 12:59:30;;;;;;;1.87;0.63;;;;;;;;;;4967259;28;20039;-65
2022/09/28 13:02:09;;;;;;;1.95;0.50;;;;;;;;;;4963567;28;20482;-65
2022/09/28 13:04:43;;;;;;;2.33;0.60;;;;;;;;;;4949836;28;20046;-65
2022/09/28 13:07:15;;;;;;;3.38;0.50;;;;;;;;;;4958841;28;20070;-76
2022/09/28 13:09:49;;;;;;;3.20;0.63;;;;;;;;;;4986336;28;20069;-66
2022/09/28 13:12:15;;;;;;;;;;;;;;;;;;4985312;28;20042;-67
2022/09/28 13:14:41;;;;;;;2.65;0.80;;;;;;;;;;4970415;28;19925;-66
2022/09/28 13:17:18;;;;;;;1.00;0.40;;;;;;;;;;4983050;28;20075;-67
2022/09/28 13:19:49;;;;;;;2.55;0.43;;;;;;;;;;4984707;28;20126;-67
2022/09/28 13:22:21;;;;;;;3.13;0.50;;;;;;;;;;4986122;28;20068;-70
2022/09/28 13:24:48;;;;;;;1.85;0.45;;;;;;;;;;4986235;28;20568;-67
2022/09/28 13:27:18;;;;;;;1.92;0.40;;;;;;;;;;4986979;28;20547;-68
2022/09/28 13:29:44;;;;;;;1.75;0.52;;;;;;;;;;4991977;28;20477;-69
2022/09/28 13:32:11;;;;;;;3.55;0.40;;;;;;;;;;4984558;28;20494;-69
2022/09/28 13:34:38;;;;;;;1.58;0.40;;;;;;;;;;4991308;28;20057;-68
2022/09/28 13:37:08;;;;;;;2.08;0.40;;;;;;;;;;4979282;28;20054;-69
2022/09/28 13:39:36;;;;;;;0.65;0.40;;;;;;;;;;4982927;28;20120;-69
2022/09/28 13:42:04;;;;;;;1.10;0.40;;;;;;;;;;4983445;28;20506;-68
2022/09/28 13:44:36;;;;;;;2.25;0.55;;;;;;;;;;4985409;28;20068;-69
2022/09/28 13:47:05;;;;;;;2.17;0.65;;;;;;;;;;4979556;28;20050;-68
2022/09/28 13:49:40;;;;;;;2.55;0.65;;;;;;;;;;4982796;28;20054;-69
2022/09/28 13:52:29;;;;;;;3.83;0.98;;;;;;;;;;4982735;28;20056;-68
2022/09/28 13:55:09;;;;;;;2.17;0.55;;;;;;;;;;4982795;28;20488;-67
2022/09/28 13:57:45;;;;;;;1.52;0.60;;;;;;;;;;4983120;28;20069;-69
2022/09/28 14:00:31;;;;;;;3.45;0.55;;;;;;;;;;4985806;28;20042;-68
2022/09/28 14:03:03;;;;;;;2.15;0.60;;;;;;;;;;4986014;28;20081;-66
2022/09/28 14:05:29;;;;;;;1.73;0.40;;;;;;;;;;4986010;28;20038;-68
2022/09/28 14:08:10;;;;;;;3.63;0.68;;;;;;;;;;4984920;28;20422;-67
2022/09/28 14:10:47;;;;;;;2.50;0.60;;;;;;;;;;4983531;28;20054;-68
2022/09/28 14:13:33;;;;;;;3.95;0.82;;;;;;;;;;4985233;28;20051;-68
2022/09/28 14:16:20;;;;;;;2.20;0.52;;;;;;;;;;4981068;28;20058;-68
2022/09/28 14:18:52;;;;;;;2.35;0.68;;;;;;;;;;4984722;28;20161;-65
2022/09/28 14:21:18;;;;;;;3.83;0.90;;;;;;;;;;4980007;28;20035;-67
2022/09/28 14:24:03;;;;;;;0.93;0.50;;;;;;;;;;4982878;28;20382;-66
2022/09/28 14:26:40;;;;;;;1.88;0.60;;;;;;;;;;4980397;28;20056;-66
2022/09/28 14:29:27;;;;;;;1.60;0.60;;;;;;;;;;4983727;28;20053;-76
2022/09/28 14:31:54;;;;;;;2.85;0.63;;;;;;;;;;4983303;28;20121;-65
2022/09/28 14:34:31;;;;;;;2.08;0.60;;;;;;;;;;4977063;28;20054;-65
2022/09/28 14:42:28;;;;;;;1.08;0.40;;;;;;;;;;4979181;28;20050;-65
2022/09/28 14:45:05;;;;;;;4.53;0.50;;;;;;;;;;4982748;28;20533;-65
2022/09/28 14:47:35;;;;;;;1.77;0.40;;;;;;;;;;4978793;28;20557;-65
2022/09/28 14:50:17;;;;;;;0.73;0.32;;;;;;;;;;4973941;28;20045;-65
2022/09/28 14:52:46;;;;;;;3.75;0.77;;;;;;;;;;4980955;28;20050;-66
2022/09/28 14:55:14;;;;;;;4.25;0.50;;;;;;;;;;4984999;28;20406;-66
2022/09/28 14:57:41;;;;;;;3.30;0.70;;;;;;;;;;4984194;28;20397;-66
2022/09/28 15:00:09;;;;;;;1.88;0.52;;;;;;;;;;4986448;28;20043;-66